Weather observations for the past three days for
Chenault Airpark
| Date | Time (cdt) | Wind (mph) | Vis. (mi.) | Weather | Sky Cond. | Temperature (ºF) | Relative Humidity | Wind Chill (°F) | Heat Index (°F) | Pressure | Precipitation (in) | ||||||
|---|---|---|---|---|---|---|---|---|---|---|---|---|---|---|---|---|---|
| Air | Dwpt | 6 hour | altimeter (in) | sea level (mb) | 1 hr | 3 hr | 6 hr | ||||||||||
| Max. | Min. | ||||||||||||||||
| 10 | 02:55 | Calm | 2.50 | Fog/Mist | CLR | 66.4 | 66.2 | 99% | 29.9 | 0.0 | |||||||
| 10 | 02:35 | Calm | 4.00 | Fog/Mist | CLR | 66.7 | 66.6 | 99% | 29.89 | 0.0 | |||||||
| 10 | 02:15 | Calm | 0.75 | Fog/Mist | VV005 | 66.9 | 66.7 | 99% | 29.9 | 0.0 | |||||||
| 10 | 01:55 | Calm | 1.00 | Fog/Mist | VV007 | 67.3 | 66.9 | 99% | 29.89 | 0.0 | |||||||
| 10 | 01:35 | Calm | 10.00 | Fair | CLR | 67.8 | 67.3 | 98% | 29.89 | 0.0 | |||||||
| 10 | 01:15 | NE 3 | 10.00 | Fair | CLR | 68 | 67.5 | 98% | 29.89 | 0.0 | |||||||
| 10 | 00:55 | E 3 | 10.00 | Fair | CLR | 67.3 | 66.7 | 72.5 | 67.3 | 98% | 29.89 | 0.0 | 0.01 | ||||
| 10 | 00:35 | E 5 | 10.00 | Fair | CLR | 67.5 | 67.1 | 99% | 29.89 | 0.0 | |||||||
| 10 | 00:15 | E 5 | 10.00 | Fair | CLR | 67.6 | 67.1 | 98% | 29.89 | 0.0 | |||||||
| 09 | 23:55 | SE 5 | 10.00 | Fair | CLR | 68.2 | 67.1 | 96% | 29.89 | 0.0 | |||||||
| 09 | 23:35 | SE 3 | 10.00 | Fair | CLR | 68.5 | 67.3 | 96% | 29.9 | 0.0 | |||||||
| 09 | 23:15 | E 3 | 10.00 | Partly Cloudy | SCT019 | 69.4 | 68.2 | 96% | 29.91 | 0.0 | |||||||
| 09 | 22:55 | E 7 | 10.00 | Mostly Cloudy | BKN018 | 70.3 | 68.7 | 95% | 29.9 | 0.0 | |||||||
| 09 | 22:35 | E 7 | 10.00 | Overcast | BKN015 OVC021 | 70.5 | 68.9 | 95% | 29.91 | 0.0 | |||||||
| 09 | 22:15 | E 16 G 22 | 10.00 | Overcast | SCT007 BKN011 OVC020 | 71.1 | 68.9 | 93% | 29.89 | 0.0 | |||||||
| 09 | 21:45 | SE 18 G 24 | 10.00 | Thunderstorm Light Rain | BKN008 | 69.8 | 69.8 | 100% | 29.86 | 0.0 | |||||||
| 09 | 20:45 | S 8 | 10.00 | Thunderstorm Light Rain | BKN008 | 69.8 | 69.8 | 100% | 29.9 | 0.0 | |||||||
| 09 | 18:50 | SE 8 | 10.00 | Thunderstorm | BKN008 BKN060 | 73.4 | 69.8 | 89% | 29.85 | 0.0 | |||||||
| 09 | 17:55 | E 7 | 10.00 | Thunderstorm | BKN008 OVC060 | 73.4 | 69.8 | 89% | 29.85 | 0.0 | |||||||
| 09 | 16:55 | E 17 | 10.00 | Overcast | OVC008 | 71.6 | 69.8 | 94% | 29.83 | 0.0 | |||||||
| 09 | 15:50 | E 17 | 10.00 | Overcast | OVC008 | 71.6 | 69.8 | 94% | 29.82 | 0.0 | |||||||
| 09 | 14:55 | E 13 | 10.00 | Overcast | OVC025 | 71.6 | 68 | 88% | 29.86 | 0.0 | |||||||
| 09 | 13:45 | E 10 | 10.00 | Thunderstorm | OVC015 | 73.4 | 69.8 | 89% | 29.85 | 0.0 | |||||||
| 09 | 12:45 | E 12 | 10.00 | Overcast | OVC009 | 73.4 | 69.8 | 89% | 29.86 | 0.0 | |||||||
| 09 | 11:45 | NE 6 | 7.00 | Overcast | OVC005 | 77 | 73.4 | 89% | 78 | 29.87 | 0.0 | ||||||
| 09 | 10:50 | NE 3 | 7.00 | Overcast | OVC003 | 73.4 | 73.4 | 100% | 29.88 | 0.0 | |||||||
| 09 | 09:45 | NE 3 | 5.00 | Overcast | OVC003 | 73.4 | 73.4 | 100% | 29.85 | 0.0 | |||||||
| 09 | 08:50 | NE 6 | 3.00 | Fog/Mist | OVC002 | 71.6 | 71.6 | 100% | 29.85 | 0.0 | |||||||
| 09 | 07:45 | NE 6 | 0.50 | Fog | OVC002 | 71.6 | 71.6 | 100% | 29.86 | 0.0 | |||||||
| 09 | 06:45 | E 3 | 1.00 | Fog/Mist | OVC004 | 71.6 | 71.6 | 100% | 29.85 | 0.0 | |||||||
| 09 | 05:35 | Calm | 5.00 | Fog/Mist | OVC004 | 72.1 | 71.8 | 99% | 29.83 | 0.0 | |||||||
| 09 | 05:15 | Calm | 7.00 | Fog/Mist | OVC006 | 72 | 71.4 | 98% | 29.82 | 0.0 | |||||||
| 09 | 04:55 | Calm | 10.00 | Overcast | OVC006 | 71.2 | 70.9 | 99% | 29.81 | 0.0 | |||||||
| 09 | 04:35 | S 6 | 10.00 | Overcast | OVC006 | 71.1 | 70.5 | 98% | 29.81 | 0.0 | |||||||
| 09 | 04:15 | Calm | 10.00 | Overcast | OVC004 | 70.5 | 70.2 | 99% | 29.81 | 0.0 | |||||||
| 09 | 03:55 | Calm | 10.00 | Overcast | OVC006 | 70.5 | 70 | 98% | 29.81 | 0.0 | |||||||
| 09 | 03:35 | Calm | 10.00 | Overcast | OVC006 | 70.5 | 70 | 98% | 29.83 | 0.0 | |||||||
| 09 | 03:15 | Calm | 10.00 | Overcast | OVC006 | 69.8 | 69.4 | 99% | 29.82 | 0.0 | |||||||
| 09 | 02:55 | Calm | 10.00 | Mostly Cloudy | BKN006 | 69.3 | 68.9 | 99% | 29.82 | 0.0 | |||||||
| 09 | 02:35 | E 3 | 10.00 | Partly Cloudy | SCT008 | 69.6 | 69.1 | 98% | 29.82 | 0.0 | |||||||
| 09 | 02:15 | Calm | 10.00 | Fair | CLR | 70.3 | 69.6 | 98% | 29.83 | 0.0 | |||||||
| 09 | 01:55 | SE 6 | 10.00 | Fair | CLR | 70.5 | 69.8 | 98% | 29.83 | 0.0 | |||||||
| 09 | 01:15 | SE 6 | 10.00 | Partly Cloudy | SCT060 SCT090 | 69.3 | 68.9 | 99% | 29.85 | 0.0 | |||||||
| 09 | 00:55 | SE 5 | 10.00 | Partly Cloudy | SCT060 SCT090 | 68.5 | 68.2 | 71.4 | 68.4 | 99% | 29.85 | 0.0 | 0.01 | ||||
| 09 | 00:35 | E 3 | 10.00 | Fair | CLR | 69.4 | 69.1 | 99% | 29.86 | 0.0 | |||||||
| 09 | 00:15 | E 3 | 10.00 | Partly Cloudy | SCT060 | 69.1 | 68.7 | 99% | 29.86 | 0.0 | |||||||
| 08 | 23:55 | SE 5 | 10.00 | Partly Cloudy | SCT060 | 69.3 | 68.7 | 98% | 29.86 | 0.0 | |||||||
| 08 | 23:35 | SE 6 | 10.00 | Partly Cloudy | SCT095 SCT120 | 69.8 | 69.1 | 98% | 29.87 | 0.0 | |||||||
| 08 | 23:15 | SE 6 | 10.00 | Mostly Cloudy | SCT017 SCT065 BKN080 | 70 | 69.4 | 98% | 29.87 | 0.0 | |||||||
| 08 | 22:55 | E 6 | 10.00 | Overcast | SCT015 OVC065 | 69.8 | 69.3 | 98% | 29.87 | 0.0 | |||||||
| 08 | 22:35 | E 3 | 10.00 | Mostly Cloudy | SCT065 BKN120 | 69.8 | 69.1 | 98% | 29.88 | 0.0 | |||||||
| 08 | 22:15 | E 5 | 10.00 | Mostly Cloudy | SCT020 BKN120 | 69.8 | 69.1 | 98% | 29.87 | 0.0 | |||||||
| 08 | 21:45 | E 6 | 10.00 | Overcast | OVC015 | 69.8 | 69.8 | 100% | 29.86 | 0.0 | |||||||
| 08 | 20:45 | NE 3 | 10.00 | Overcast | OVC015 | 69.8 | 69.8 | 100% | 29.85 | 0.0 | |||||||
| 08 | 19:45 | E 5 | 10.00 | Overcast | BKN008 OVC014 | 71.6 | 69.8 | 94% | 29.85 | 0.0 | |||||||
| 08 | 17:50 | E 6 | 10.00 | Overcast | OVC007 | 71.6 | 71.6 | 100% | 29.85 | 0.0 | |||||||
| 08 | 16:55 | NE 7 | 10.00 | Overcast | OVC003 | 71.6 | 69.8 | 94% | 29.84 | 0.0 | |||||||
| 08 | 15:50 | E 6 | 10.00 | Overcast | BKN003 OVC008 | 71.6 | 69.8 | 94% | 29.84 | 0.0 | |||||||
| 08 | 14:45 | SE 5 | 10.00 | Thunderstorm Light Rain | OVC005 | 69.8 | 69.8 | 100% | 29.87 | 0.0 | |||||||
| 08 | 13:45 | SE 6 | 10.00 | Overcast | OVC003 | 69.8 | 69.8 | 100% | 29.88 | 0.0 | |||||||
| 08 | 12:50 | NE 3 | 10.00 | Thunderstorm Light Rain | OVC003 | 66.2 | 66.2 | 100% | 29.92 | 0.0 | |||||||
| 08 | 11:45 | NE 6 | 7.00 | Rain Fog/Mist | OVC004 | 64.4 | 64.4 | 100% | 29.94 | 0.0 | |||||||
| 08 | 10:45 | NE 6 | 7.00 | Thunderstorm Light Rain Fog/Mist | OVC004 | 66.2 | 64.4 | 94% | 29.92 | 0.0 | |||||||
| 08 | 09:45 | NE 8 | 3.00 | Light Rain Fog/Mist | OVC003 | 66.2 | 64.4 | 94% | 29.95 | 0.0 | |||||||
| 08 | 08:45 | NE 8 | 3.00 | Fog/Mist | OVC004 | 66.2 | 64.4 | 94% | 29.94 | 0.0 | |||||||
| 08 | 07:55 | NE 6 | 5.00 | Fog/Mist | OVC004 | 66.2 | 64.4 | 94% | 29.92 | 0.0 | |||||||
| 08 | 06:45 | E 6 | 5.00 | Fog/Mist | OVC004 | 64.4 | 62.6 | 94% | 29.92 | 0.0 | |||||||
| 08 | 05:35 | NE 6 | 1.25 | Fog/Mist | OVC004 | 63.5 | 63 | 98% | 29.94 | 0.0 | |||||||
| 08 | 05:15 | NE 6 | 1.50 | Fog/Mist | OVC004 | 63.3 | 62.8 | 98% | 29.95 | 0.0 | |||||||
| 08 | 04:55 | N 7 | 2.00 | Fog/Mist | OVC004 | 63.3 | 62.6 | 98% | 29.95 | 0.0 | |||||||
| 08 | 04:35 | N 7 | 3.50 | Fog/Mist | OVC004 | 63.3 | 62.4 | 97% | 29.94 | 0.0 | |||||||
| 08 | 04:15 | NE 5 | 4.00 | Fog/Mist | OVC004 | 63.5 | 62.6 | 97% | 29.93 | 0.0 | |||||||
| 08 | 03:55 | N 8 | 3.50 | Fog/Mist | BKN006 OVC012 | 63.7 | 62.6 | 96% | 29.92 | 0.0 | |||||||
| 08 | 03:35 | NE 7 | 3.00 | Fog/Mist | OVC012 | 64 | 62.8 | 96% | 29.91 | 0.0 | |||||||
| 08 | 03:15 | NE 7 | 4.00 | Fog/Mist | OVC010 | 64.6 | 62.4 | 93% | 29.93 | 0.0 | |||||||
| 08 | 02:55 | NE 7 | 7.00 | Fog/Mist | OVC012 | 64.9 | 61.7 | 89% | 29.94 | 0.0 | |||||||
| 08 | 02:35 | NE 8 | 10.00 | Overcast | OVC014 | 66.4 | 60.4 | 81% | 29.93 | 0.0 | |||||||
| 08 | 02:15 | E 6 | 10.00 | Overcast | OVC016 | 66.6 | 60.8 | 82% | 29.93 | 0.0 | |||||||
| 08 | 01:55 | E 8 | 10.00 | Overcast | OVC016 | 66.4 | 60.3 | 81% | 29.94 | 0.0 | |||||||
| 08 | 01:35 | E 9 | 10.00 | Overcast | OVC018 | 66.2 | 60.8 | 83% | 29.93 | 0.0 | |||||||
| 08 | 01:15 | NE 7 | 10.00 | Overcast | BKN018 OVC028 | 66.2 | 60.4 | 82% | 29.94 | 0.0 | |||||||
| 08 | 00:55 | E 9 | 10.00 | Overcast | OVC030 | 66 | 60.8 | 74.8 | 65.8 | 83% | 29.94 | 0.0 | |||||
| 08 | 00:35 | NE 7 | 10.00 | Partly Cloudy | SCT030 | 66.2 | 60.4 | 82% | 29.98 | 0.0 | |||||||
| 08 | 00:15 | NE 8 | 10.00 | Fair | CLR | 66 | 60.4 | 82% | 29.96 | 0.0 | |||||||
| 07 | 23:55 | NE 8 | 10.00 | Fair | CLR | 66.2 | 61 | 83% | 29.97 | 0.0 | |||||||
| 07 | 23:35 | NE 7 | 10.00 | Fair | CLR | 66.4 | 61.2 | 83% | 29.98 | 0.0 | |||||||
| 07 | 23:15 | NE 7 | 10.00 | Fair | CLR | 66.4 | 61.7 | 85% | 29.99 | 0.0 | |||||||
| 07 | 22:55 | E 6 | 10.00 | Fair | CLR | 66.4 | 61.9 | 86% | 29.98 | 0.0 | |||||||
| 07 | 22:35 | E 6 | 10.00 | Fair | CLR | 67.5 | 61.9 | 82% | 29.99 | 0.0 | |||||||
| 07 | 22:15 | NE 7 | 10.00 | Fair | CLR | 67.6 | 62.8 | 85% | 29.98 | 0.0 | |||||||
| 07 | 21:50 | NE 7 | 10.00 | Fair | CLR | 68 | 62.6 | 83% | 29.97 | 0.0 | |||||||
| 07 | 20:45 | NE 7 | 10.00 | Fair | CLR | 69.8 | 62.6 | 78% | 29.95 | 0.0 | |||||||
| 07 | 19:50 | NE 9 | 10.00 | Partly Cloudy | SCT030 | 73.4 | 64.4 | 74% | 29.94 | 0.0 | |||||||
| 07 | 18:50 | NE 8 | 10.00 | Partly Cloudy | SCT027 | 75.2 | 64.4 | 69% | 77 | 29.93 | 0.0 | ||||||
| 07 | 17:50 | NE 7 | 10.00 | Fair | CLR | 75.2 | 64.4 | 69% | 77 | 29.93 | 0.0 | ||||||
| 07 | 16:50 | N 8 | 10.00 | Fair | CLR | 77 | 64.4 | 65% | 79 | 29.94 | 0.0 | ||||||
| 07 | 15:45 | N 13 | 10.00 | Mostly Cloudy | BKN050 | 75.2 | 64.4 | 69% | 77 | 29.95 | 0.0 | ||||||
| 07 | 14:50 | N 6 | 10.00 | Fair | CLR | 73.4 | 64.4 | 74% | 29.97 | 0.0 | |||||||
| 07 | 13:45 | N 13 G 17 | 10.00 | Mostly Cloudy | SCT019 BKN022 | 71.6 | 62.6 | 73% | 29.98 | 0.0 | |||||||
| 07 | 12:45 | NW 10 G 16 | 10.00 | Mostly Cloudy | BKN018 | 71.6 | 62.6 | 73% | 29.99 | 0.0 | |||||||
| 07 | 11:45 | N 13 | 10.00 | Mostly Cloudy | BKN016 BKN044 | 69.8 | 62.6 | 78% | 29.98 | 0.0 | |||||||
| 07 | 10:45 | N 10 | 10.00 | Overcast | OVC008 | 66.2 | 60.8 | 83% | 30 | 0.0 | |||||||
| 07 | 09:45 | N 10 | 10.00 | Overcast | OVC008 | 62.6 | 59 | 88% | 30.02 | 0.0 | |||||||
| 07 | 08:52 | N 12 | 10.00 | Overcast | OVC008 | 62.6 | 59 | 88% | 29.99 | 0.0 | |||||||
| 07 | 07:45 | NE 8 | 10.00 | Overcast | OVC008 | 60.8 | 57.2 | 88% | 29.99 | 0.0 | |||||||
| 07 | 06:48 | NE 9 | 10.00 | Overcast | OVC006 | 60.8 | 59 | 94% | 29.95 | 0.0 | |||||||
| 07 | 05:35 | N 12 | 10.00 | Overcast | OVC006 | 61.7 | 59.9 | 94% | 29.94 | 0.0 | |||||||
| 07 | 05:15 | N 9 | 10.00 | Overcast | OVC006 | 62.1 | 60.3 | 94% | 29.94 | 0.0 | |||||||
| 07 | 04:55 | N 10 | 7.00 | Overcast | OVC004 | 62.6 | 61.2 | 95% | 29.92 | 0.0 | |||||||
| 07 | 04:35 | N 9 | 5.00 | Fog/Mist | OVC004 | 63.1 | 62.1 | 96% | 29.92 | 0.0 | |||||||
| 07 | 04:15 | N 8 | 10.00 | Overcast | OVC006 | 63.3 | 61.9 | 95% | 29.92 | 0.0 | |||||||
| 07 | 03:55 | N 15 G 20 | 10.00 | Overcast | OVC004 | 63.9 | 62.4 | 95% | 29.92 | 0.0 | 0.02 | ||||||
| 07 | 03:35 | N 10 | 7.00 | Overcast | OVC004 | 64.8 | 63.7 | 96% | 29.9 | 0.0 | |||||||
| 07 | 03:15 | N 8 | 10.00 | Overcast | OVC004 | 65.7 | 64.6 | 96% | 29.9 | 0.0 | |||||||
| Date | Time (cdt) | Wind (mph) | Vis. (mi.) | Weather | Sky Cond. | Air | Dwpt | Max. | Min. | Relative Humidity | Wind Chill (°F) | Heat Index (°F) | altimeter (in) | sea level (mb) | 1 hr | 3 hr | 6 hr |
| 6 hour | |||||||||||||||||
| Temperature (ºF) | Pressure | Precipitation (in) | |||||||||||||||